sensor_id;sensor_type;location;lat;lon;timestamp;P1;durP1;ratioP1;P2;durP2;ratioP2
21798;SDS011;24973;47.178;15.316;2022-08-05T00:01:09;4.60;;;4.20;;
21798;SDS011;24973;47.178;15.316;2022-08-05T00:03:59;5.00;;;4.60;;
21798;SDS011;24973;47.178;15.316;2022-08-05T00:06:48;4.87;;;4.37;;
21798;SDS011;24973;47.178;15.316;2022-08-05T00:09:38;5.00;;;4.60;;
21798;SDS011;24973;47.178;15.316;2022-08-05T00:12:27;5.90;;;4.47;;
21798;SDS011;24973;47.178;15.316;2022-08-05T00:15:16;5.13;;;4.63;;
21798;SDS011;24973;47.178;15.316;2022-08-05T00:18:05;5.33;;;4.73;;
21798;SDS011;24973;47.178;15.316;2022-08-05T00:20:53;4.60;;;4.30;;
21798;SDS011;24973;47.178;15.316;2022-08-05T00:23:43;6.13;;;4.17;;
21798;SDS011;24973;47.178;15.316;2022-08-05T00:26:35;5.00;;;4.60;;
21798;SDS011;24973;47.178;15.316;2022-08-05T00:29:24;5.00;;;4.50;;
21798;SDS011;24973;47.178;15.316;2022-08-05T00:32:13;4.03;;;3.73;;
21798;SDS011;24973;47.178;15.316;2022-08-05T00:35:02;4.47;;;4.17;;
21798;SDS011;24973;47.178;15.316;2022-08-05T00:37:52;5.53;;;5.10;;
21798;SDS011;24973;47.178;15.316;2022-08-05T00:40:44;5.17;;;4.67;;
21798;SDS011;24973;47.178;15.316;2022-08-05T00:43:36;5.90;;;5.00;;
21798;SDS011;24973;47.178;15.316;2022-08-05T00:46:25;5.73;;;4.83;;
21798;SDS011;24973;47.178;15.316;2022-08-05T00:49:14;4.83;;;4.43;;
21798;SDS011;24973;47.178;15.316;2022-08-05T00:52:05;4.73;;;4.33;;
21798;SDS011;24973;47.178;15.316;2022-08-05T00:54:53;5.80;;;5.23;;
21798;SDS011;24973;47.178;15.316;2022-08-05T00:57:42;5.50;;;4.50;;
21798;SDS011;24973;47.178;15.316;2022-08-05T01:00:32;5.10;;;4.70;;
21798;SDS011;24973;47.178;15.316;2022-08-05T01:03:21;4.37;;;4.07;;
21798;SDS011;24973;47.178;15.316;2022-08-05T01:06:11;4.97;;;4.47;;
21798;SDS011;24973;47.178;15.316;2022-08-05T01:09:00;6.33;;;4.63;;
21798;SDS011;24973;47.178;15.316;2022-08-05T01:11:49;5.27;;;4.83;;
21798;SDS011;24973;47.178;15.316;2022-08-05T01:14:44;4.63;;;4.23;;
21798;SDS011;24973;47.178;15.316;2022-08-05T01:17:46;4.57;;;4.17;;
21798;SDS011;24973;47.178;15.316;2022-08-05T01:20:44;5.60;;;4.00;;
21798;SDS011;24973;47.178;15.316;2022-08-05T01:23:43;6.27;;;4.17;;
21798;SDS011;24973;47.178;15.316;2022-08-05T01:26:47;8.23;;;5.07;;
21798;SDS011;24973;47.178;15.316;2022-08-05T01:29:49;4.10;;;3.80;;
21798;SDS011;24973;47.178;15.316;2022-08-05T01:32:43;5.97;;;4.40;;
21798;SDS011;24973;47.178;15.316;2022-08-05T01:35:37;5.10;;;4.47;;
21798;SDS011;24973;47.178;15.316;2022-08-05T01:38:28;5.43;;;5.03;;
21798;SDS011;24973;47.178;15.316;2022-08-05T01:41:20;5.30;;;4.60;;
21798;SDS011;24973;47.178;15.316;2022-08-05T01:44:11;5.47;;;4.97;;
21798;SDS011;24973;47.178;15.316;2022-08-05T01:47:03;5.03;;;4.40;;
21798;SDS011;24973;47.178;15.316;2022-08-05T01:49:53;5.00;;;4.60;;
21798;SDS011;24973;47.178;15.316;2022-08-05T01:52:43;5.37;;;4.83;;
21798;SDS011;24973;47.178;15.316;2022-08-05T01:55:34;5.20;;;4.80;;
21798;SDS011;24973;47.178;15.316;2022-08-05T01:58:24;5.53;;;4.33;;
21798;SDS011;24973;47.178;15.316;2022-08-05T02:01:15;4.60;;;4.20;;
21798;SDS011;24973;47.178;15.316;2022-08-05T02:04:07;6.47;;;5.37;;
21798;SDS011;24973;47.178;15.316;2022-08-05T02:06:56;5.23;;;4.77;;
21798;SDS011;24973;47.178;15.316;2022-08-05T02:09:46;6.00;;;5.50;;
21798;SDS011;24973;47.178;15.316;2022-08-05T02:12:36;5.37;;;4.93;;
21798;SDS011;24973;47.178;15.316;2022-08-05T02:15:33;6.27;;;5.60;;
21798;SDS011;24973;47.178;15.316;2022-08-05T02:18:31;6.60;;;5.30;;
21798;SDS011;24973;47.178;15.316;2022-08-05T02:21:29;5.03;;;4.63;;
21798;SDS011;24973;47.178;15.316;2022-08-05T02:24:22;5.70;;;5.20;;
21798;SDS011;24973;47.178;15.316;2022-08-05T02:27:16;5.40;;;4.90;;
21798;SDS011;24973;47.178;15.316;2022-08-05T02:30:08;4.97;;;4.47;;
21798;SDS011;24973;47.178;15.316;2022-08-05T02:32:59;5.10;;;4.70;;
21798;SDS011;24973;47.178;15.316;2022-08-05T02:35:50;4.63;;;4.23;;
21798;SDS011;24973;47.178;15.316;2022-08-05T02:38:46;5.13;;;4.63;;
21798;SDS011;24973;47.178;15.316;2022-08-05T02:41:36;6.20;;;5.70;;
21798;SDS011;24973;47.178;15.316;2022-08-05T02:44:28;5.63;;;5.13;;
21798;SDS011;24973;47.178;15.316;2022-08-05T02:47:19;6.67;;;5.60;;
21798;SDS011;24973;47.178;15.316;2022-08-05T02:50:09;5.57;;;5.00;;
21798;SDS011;24973;47.178;15.316;2022-08-05T02:53:01;6.53;;;4.63;;
21798;SDS011;24973;47.178;15.316;2022-08-05T02:55:52;5.43;;;4.93;;
21798;SDS011;24973;47.178;15.316;2022-08-05T02:58:42;6.80;;;4.73;;
21798;SDS011;24973;47.178;15.316;2022-08-05T03:01:31;5.40;;;4.90;;
21798;SDS011;24973;47.178;15.316;2022-08-05T03:04:22;4.53;;;4.13;;
21798;SDS011;24973;47.178;15.316;2022-08-05T03:07:11;5.53;;;5.03;;
21798;SDS011;24973;47.178;15.316;2022-08-05T03:10:00;5.50;;;4.97;;
21798;SDS011;24973;47.178;15.316;2022-08-05T03:12:51;5.70;;;5.20;;
21798;SDS011;24973;47.178;15.316;2022-08-05T03:15:40;5.70;;;5.20;;
21798;SDS011;24973;47.178;15.316;2022-08-05T03:18:30;5.67;;;5.17;;
21798;SDS011;24973;47.178;15.316;2022-08-05T03:21:18;9.90;;;5.20;;
21798;SDS011;24973;47.178;15.316;2022-08-05T03:24:07;5.40;;;4.90;;
21798;SDS011;24973;47.178;15.316;2022-08-05T03:26:57;5.27;;;4.70;;
21798;SDS011;24973;47.178;15.316;2022-08-05T03:29:48;6.27;;;5.63;;
21798;SDS011;24973;47.178;15.316;2022-08-05T03:32:37;6.27;;;5.67;;
21798;SDS011;24973;47.178;15.316;2022-08-05T03:35:26;4.93;;;4.53;;
21798;SDS011;24973;47.178;15.316;2022-08-05T03:38:16;5.27;;;4.77;;
21798;SDS011;24973;47.178;15.316;2022-08-05T03:41:05;5.27;;;4.87;;
21798;SDS011;24973;47.178;15.316;2022-08-05T03:43:54;6.00;;;5.50;;
21798;SDS011;24973;47.178;15.316;2022-08-05T03:46:44;6.27;;;5.17;;
21798;SDS011;24973;47.178;15.316;2022-08-05T03:49:33;5.57;;;5.07;;
21798;SDS011;24973;47.178;15.316;2022-08-05T03:52:23;5.70;;;5.20;;
21798;SDS011;24973;47.178;15.316;2022-08-05T03:55:18;5.63;;;5.10;;
21798;SDS011;24973;47.178;15.316;2022-08-05T03:58:15;6.53;;;5.93;;
21798;SDS011;24973;47.178;15.316;2022-08-05T04:01:06;8.23;;;4.77;;
21798;SDS011;24973;47.178;15.316;2022-08-05T04:03:57;7.10;;;5.87;;
21798;SDS011;24973;47.178;15.316;2022-08-05T04:06:48;5.07;;;4.57;;
21798;SDS011;24973;47.178;15.316;2022-08-05T04:09:38;6.73;;;5.03;;
21798;SDS011;24973;47.178;15.316;2022-08-05T04:12:27;5.77;;;5.33;;
21798;SDS011;24973;47.178;15.316;2022-08-05T04:15:17;5.20;;;4.80;;
21798;SDS011;24973;47.178;15.316;2022-08-05T04:18:06;6.40;;;5.47;;
21798;SDS011;24973;47.178;15.316;2022-08-05T04:20:56;5.63;;;5.13;;
21798;SDS011;24973;47.178;15.316;2022-08-05T04:23:45;6.23;;;5.73;;
21798;SDS011;24973;47.178;15.316;2022-08-05T04:26:34;5.67;;;5.17;;
21798;SDS011;24973;47.178;15.316;2022-08-05T04:29:22;5.73;;;5.20;;
21798;SDS011;24973;47.178;15.316;2022-08-05T04:32:11;5.20;;;4.70;;
21798;SDS011;24973;47.178;15.316;2022-08-05T04:35:00;5.70;;;5.17;;
21798;SDS011;24973;47.178;15.316;2022-08-05T04:37:50;5.73;;;5.23;;
21798;SDS011;24973;47.178;15.316;2022-08-05T04:40:39;6.07;;;5.47;;
21798;SDS011;24973;47.178;15.316;2022-08-05T04:43:28;5.97;;;5.37;;
21798;SDS011;24973;47.178;15.316;2022-08-05T04:46:17;8.17;;;5.73;;
21798;SDS011;24973;47.178;15.316;2022-08-05T04:49:06;5.93;;;5.43;;
21798;SDS011;24973;47.178;15.316;2022-08-05T04:51:55;6.03;;;5.60;;
21798;SDS011;24973;47.178;15.316;2022-08-05T04:54:45;6.00;;;5.40;;
21798;SDS011;24973;47.178;15.316;2022-08-05T04:57:34;4.93;;;4.53;;
21798;SDS011;24973;47.178;15.316;2022-08-05T05:00:23;6.37;;;5.77;;
21798;SDS011;24973;47.178;15.316;2022-08-05T05:03:12;5.67;;;5.17;;
21798;SDS011;24973;47.178;15.316;2022-08-05T05:06:00;4.97;;;4.33;;
21798;SDS011;24973;47.178;15.316;2022-08-05T05:08:49;5.67;;;5.23;;
21798;SDS011;24973;47.178;15.316;2022-08-05T05:11:39;6.30;;;5.70;;
21798;SDS011;24973;47.178;15.316;2022-08-05T05:14:28;5.73;;;4.80;;
21798;SDS011;24973;47.178;15.316;2022-08-05T05:17:17;7.00;;;6.20;;
21798;SDS011;24973;47.178;15.316;2022-08-05T05:20:09;6.27;;;5.67;;
21798;SDS011;24973;47.178;15.316;2022-08-05T05:23:00;5.57;;;5.07;;
21798;SDS011;24973;47.178;15.316;2022-08-05T05:25:52;5.47;;;4.90;;
21798;SDS011;24973;47.178;15.316;2022-08-05T05:28:42;6.40;;;5.80;;
21798;SDS011;24973;47.178;15.316;2022-08-05T05:31:31;6.33;;;4.97;;
21798;SDS011;24973;47.178;15.316;2022-08-05T05:34:19;6.43;;;4.97;;
21798;SDS011;24973;47.178;15.316;2022-08-05T05:37:10;7.10;;;5.60;;
21798;SDS011;24973;47.178;15.316;2022-08-05T05:40:00;6.37;;;5.77;;
21798;SDS011;24973;47.178;15.316;2022-08-05T05:42:49;6.63;;;5.87;;
21798;SDS011;24973;47.178;15.316;2022-08-05T05:45:40;6.67;;;5.43;;
21798;SDS011;24973;47.178;15.316;2022-08-05T05:48:28;6.27;;;5.67;;
21798;SDS011;24973;47.178;15.316;2022-08-05T05:51:18;7.10;;;6.40;;
21798;SDS011;24973;47.178;15.316;2022-08-05T05:54:08;8.07;;;7.27;;
21798;SDS011;24973;47.178;15.316;2022-08-05T05:56:56;9.90;;;6.73;;
21798;SDS011;24973;47.178;15.316;2022-08-05T05:59:45;10.17;;;6.70;;
21798;SDS011;24973;47.178;15.316;2022-08-05T06:02:36;10.20;;;7.87;;
21798;SDS011;24973;47.178;15.316;2022-08-05T06:05:24;8.50;;;7.70;;
21798;SDS011;24973;47.178;15.316;2022-08-05T06:08:13;8.70;;;6.67;;
21798;SDS011;24973;47.178;15.316;2022-08-05T06:11:02;13.57;;;7.53;;
21798;SDS011;24973;47.178;15.316;2022-08-05T06:13:51;12.90;;;7.07;;
21798;SDS011;24973;47.178;15.316;2022-08-05T06:16:39;6.97;;;6.27;;
21798;SDS011;24973;47.178;15.316;2022-08-05T06:19:30;11.47;;;8.50;;
21798;SDS011;24973;47.178;15.316;2022-08-05T06:22:21;10.37;;;8.33;;
21798;SDS011;24973;47.178;15.316;2022-08-05T06:25:11;10.90;;;7.53;;
21798;SDS011;24973;47.178;15.316;2022-08-05T06:28:00;10.53;;;7.40;;
21798;SDS011;24973;47.178;15.316;2022-08-05T06:30:49;9.90;;;8.03;;
21798;SDS011;24973;47.178;15.316;2022-08-05T06:33:38;14.13;;;10.33;;
21798;SDS011;24973;47.178;15.316;2022-08-05T06:36:28;10.83;;;8.00;;
21798;SDS011;24973;47.178;15.316;2022-08-05T06:39:17;10.30;;;8.23;;
21798;SDS011;24973;47.178;15.316;2022-08-05T06:42:06;9.93;;;7.47;;
21798;SDS011;24973;47.178;15.316;2022-08-05T06:44:54;8.83;;;7.93;;
21798;SDS011;24973;47.178;15.316;2022-08-05T06:47:43;8.70;;;7.83;;
21798;SDS011;24973;47.178;15.316;2022-08-05T06:50:32;12.83;;;8.33;;
21798;SDS011;24973;47.178;15.316;2022-08-05T06:53:22;12.63;;;8.33;;
21798;SDS011;24973;47.178;15.316;2022-08-05T06:56:11;10.47;;;8.40;;
21798;SDS011;24973;47.178;15.316;2022-08-05T06:59:00;11.07;;;8.57;;
21798;SDS011;24973;47.178;15.316;2022-08-05T07:01:49;9.00;;;6.83;;
21798;SDS011;24973;47.178;15.316;2022-08-05T07:04:38;12.23;;;7.87;;
21798;SDS011;24973;47.178;15.316;2022-08-05T07:07:30;10.53;;;7.13;;
21798;SDS011;24973;47.178;15.316;2022-08-05T07:10:43;10.33;;;7.63;;
21798;SDS011;24973;47.178;15.316;2022-08-05T07:13:32;11.27;;;7.93;;
21798;SDS011;24973;47.178;15.316;2022-08-05T07:16:39;16.07;;;7.50;;
21798;SDS011;24973;47.178;15.316;2022-08-05T07:19:37;9.63;;;6.93;;
21798;SDS011;24973;47.178;15.316;2022-08-05T07:22:46;10.50;;;6.87;;
21798;SDS011;24973;47.178;15.316;2022-08-05T07:25:35;10.10;;;6.67;;
21798;SDS011;24973;47.178;15.316;2022-08-05T07:28:25;10.87;;;7.70;;
21798;SDS011;24973;47.178;15.316;2022-08-05T07:31:14;10.70;;;7.83;;
21798;SDS011;24973;47.178;15.316;2022-08-05T07:34:03;8.00;;;7.20;;
21798;SDS011;24973;47.178;15.316;2022-08-05T07:36:52;9.00;;;7.27;;
21798;SDS011;24973;47.178;15.316;2022-08-05T07:39:41;7.37;;;6.37;;
21798;SDS011;24973;47.178;15.316;2022-08-05T07:42:30;7.73;;;6.67;;
21798;SDS011;24973;47.178;15.316;2022-08-05T07:45:21;12.13;;;6.50;;
21798;SDS011;24973;47.178;15.316;2022-08-05T07:48:10;8.00;;;7.17;;
21798;SDS011;24973;47.178;15.316;2022-08-05T07:50:59;8.00;;;7.00;;
21798;SDS011;24973;47.178;15.316;2022-08-05T07:53:48;7.97;;;7.00;;
21798;SDS011;24973;47.178;15.316;2022-08-05T07:56:36;7.30;;;6.30;;
21798;SDS011;24973;47.178;15.316;2022-08-05T07:59:25;8.50;;;6.57;;
21798;SDS011;24973;47.178;15.316;2022-08-05T08:02:16;8.37;;;6.40;;
21798;SDS011;24973;47.178;15.316;2022-08-05T08:05:05;9.80;;;7.17;;
21798;SDS011;24973;47.178;15.316;2022-08-05T08:07:54;6.90;;;6.20;;
21798;SDS011;24973;47.178;15.316;2022-08-05T08:10:43;8.30;;;6.00;;
21798;SDS011;24973;47.178;15.316;2022-08-05T08:13:31;8.80;;;6.87;;
21798;SDS011;24973;47.178;15.316;2022-08-05T08:16:20;6.83;;;5.87;;
21798;SDS011;24973;47.178;15.316;2022-08-05T08:19:10;6.27;;;5.20;;
21798;SDS011;24973;47.178;15.316;2022-08-05T08:21:59;4.40;;;3.67;;
21798;SDS011;24973;47.178;15.316;2022-08-05T08:24:48;4.50;;;4.07;;
21798;SDS011;24973;47.178;15.316;2022-08-05T08:27:37;4.60;;;4.20;;
21798;SDS011;24973;47.178;15.316;2022-08-05T08:30:26;4.80;;;4.37;;
21798;SDS011;24973;47.178;15.316;2022-08-05T08:33:19;5.25;;;4.75;;
21798;SDS011;24973;47.178;15.316;2022-08-05T08:36:10;6.13;;;4.85;;
21798;SDS011;24973;47.178;15.316;2022-08-05T08:39:10;5.18;;;4.70;;
21798;SDS011;24973;47.178;15.316;2022-08-05T08:41:59;6.90;;;5.65;;
21798;SDS011;24973;47.178;15.316;2022-08-05T08:44:51;5.20;;;4.78;;
21798;SDS011;24973;47.178;15.316;2022-08-05T08:47:41;6.57;;;4.43;;
21798;SDS011;24973;47.178;15.316;2022-08-05T08:50:34;6.43;;;5.00;;
21798;SDS011;24973;47.178;15.316;2022-08-05T08:53:29;5.60;;;5.13;;
21798;SDS011;24973;47.178;15.316;2022-08-05T08:56:24;5.60;;;5.10;;
21798;SDS011;24973;47.178;15.316;2022-08-05T08:59:13;6.43;;;4.63;;
21798;SDS011;24973;47.178;15.316;2022-08-05T09:02:05;5.85;;;5.15;;
21798;SDS011;24973;47.178;15.316;2022-08-05T09:04:54;5.97;;;4.50;;
21798;SDS011;24973;47.178;15.316;2022-08-05T09:07:43;4.80;;;4.40;;
21798;SDS011;24973;47.178;15.316;2022-08-05T09:10:33;4.93;;;4.35;;
21798;SDS011;24973;47.178;15.316;2022-08-05T09:13:22;4.43;;;3.90;;
21798;SDS011;24973;47.178;15.316;2022-08-05T09:16:12;5.20;;;3.97;;
21798;SDS011;24973;47.178;15.316;2022-08-05T09:19:01;5.95;;;5.28;;
21798;SDS011;24973;47.178;15.316;2022-08-05T09:21:50;4.03;;;3.72;;
21798;SDS011;24973;47.178;15.316;2022-08-05T09:24:39;5.13;;;3.33;;
21798;SDS011;24973;47.178;15.316;2022-08-05T09:27:32;5.22;;;4.03;;
21798;SDS011;24973;47.178;15.316;2022-08-05T09:30:25;4.95;;;3.85;;
21798;SDS011;24973;47.178;15.316;2022-08-05T09:33:13;4.55;;;4.10;;
21798;SDS011;24973;47.178;15.316;2022-08-05T09:36:03;4.20;;;3.78;;
21798;SDS011;24973;47.178;15.316;2022-08-05T09:38:54;3.47;;;2.65;;
21798;SDS011;24973;47.178;15.316;2022-08-05T09:41:54;5.50;;;3.40;;
21798;SDS011;24973;47.178;15.316;2022-08-05T09:44:46;4.15;;;3.67;;
21798;SDS011;24973;47.178;15.316;2022-08-05T09:47:39;3.63;;;3.33;;
21798;SDS011;24973;47.178;15.316;2022-08-05T09:50:35;3.20;;;3.00;;
21798;SDS011;24973;47.178;15.316;2022-08-05T09:53:25;4.38;;;4.00;;
21798;SDS011;24973;47.178;15.316;2022-08-05T09:56:22;4.82;;;3.70;;
21798;SDS011;24973;47.178;15.316;2022-08-05T09:59:12;3.85;;;3.50;;
21798;SDS011;24973;47.178;15.316;2022-08-05T10:02:04;3.55;;;3.25;;
21798;SDS011;24973;47.178;15.316;2022-08-05T10:04:53;3.47;;;3.17;;
21798;SDS011;24973;47.178;15.316;2022-08-05T10:07:51;3.30;;;3.10;;
21798;SDS011;24973;47.178;15.316;2022-08-05T10:10:45;3.60;;;3.30;;
21798;SDS011;24973;47.178;15.316;2022-08-05T10:13:37;4.05;;;3.75;;
21798;SDS011;24973;47.178;15.316;2022-08-05T10:16:27;3.15;;;2.75;;
21798;SDS011;24973;47.178;15.316;2022-08-05T10:19:21;3.35;;;3.15;;
21798;SDS011;24973;47.178;15.316;2022-08-05T10:22:11;3.15;;;2.92;;
21798;SDS011;24973;47.178;15.316;2022-08-05T10:25:00;3.40;;;3.20;;
21798;SDS011;24973;47.178;15.316;2022-08-05T10:27:49;3.92;;;3.60;;
21798;SDS011;24973;47.178;15.316;2022-08-05T10:30:39;3.60;;;3.25;;
21798;SDS011;24973;47.178;15.316;2022-08-05T10:33:29;3.88;;;3.58;;
21798;SDS011;24973;47.178;15.316;2022-08-05T10:36:22;4.63;;;3.72;;
21798;SDS011;24973;47.178;15.316;2022-08-05T10:39:13;3.38;;;3.17;;
21798;SDS011;24973;47.178;15.316;2022-08-05T10:42:07;4.60;;;3.58;;
21798;SDS011;24973;47.178;15.316;2022-08-05T10:45:00;6.10;;;4.72;;
21798;SDS011;24973;47.178;15.316;2022-08-05T10:47:51;5.53;;;4.35;;
21798;SDS011;24973;47.178;15.316;2022-08-05T10:53:53;4.47;;;4.07;;
21798;SDS011;24973;47.178;15.316;2022-08-05T10:56:43;4.57;;;3.60;;
21798;SDS011;24973;47.178;15.316;2022-08-05T10:59:34;4.13;;;3.72;;
21798;SDS011;24973;47.178;15.316;2022-08-05T11:02:24;4.55;;;4.25;;
21798;SDS011;24973;47.178;15.316;2022-08-05T11:05:13;4.32;;;3.95;;
21798;SDS011;24973;47.178;15.316;2022-08-05T11:08:03;4.55;;;3.50;;
21798;SDS011;24973;47.178;15.316;2022-08-05T11:14:31;5.88;;;4.35;;
21798;SDS011;24973;47.178;15.316;2022-08-05T11:17:42;4.72;;;4.25;;
21798;SDS011;24973;47.178;15.316;2022-08-05T11:20:41;7.30;;;4.80;;
21798;SDS011;24973;47.178;15.316;2022-08-05T11:23:34;4.25;;;3.95;;
21798;SDS011;24973;47.178;15.316;2022-08-05T11:26:29;4.50;;;4.07;;
21798;SDS011;24973;47.178;15.316;2022-08-05T11:29:36;4.68;;;4.30;;
21798;SDS011;24973;47.178;15.316;2022-08-05T11:32:27;5.03;;;3.85;;
21798;SDS011;24973;47.178;15.316;2022-08-05T11:38:49;4.70;;;4.30;;
21798;SDS011;24973;47.178;15.316;2022-08-05T11:41:40;4.38;;;3.85;;
21798;SDS011;24973;47.178;15.316;2022-08-05T11:44:36;4.95;;;3.90;;
21798;SDS011;24973;47.178;15.316;2022-08-05T11:47:26;5.30;;;3.95;;
21798;SDS011;24973;47.178;15.316;2022-08-05T11:50:16;4.88;;;3.88;;
21798;SDS011;24973;47.178;15.316;2022-08-05T11:53:06;4.90;;;4.40;;
21798;SDS011;24973;47.178;15.316;2022-08-05T11:55:56;5.43;;;4.22;;
21798;SDS011;24973;47.178;15.316;2022-08-05T11:58:47;3.60;;;3.30;;
21798;SDS011;24973;47.178;15.316;2022-08-05T12:01:50;5.28;;;3.88;;
21798;SDS011;24973;47.178;15.316;2022-08-05T12:04:41;5.28;;;4.07;;
21798;SDS011;24973;47.178;15.316;2022-08-05T12:07:32;5.28;;;3.92;;
21798;SDS011;24973;47.178;15.316;2022-08-05T12:10:23;4.03;;;3.72;;
21798;SDS011;24973;47.178;15.316;2022-08-05T12:13:14;7.05;;;3.95;;
21798;SDS011;24973;47.178;15.316;2022-08-05T12:16:05;5.13;;;4.03;;
21798;SDS011;24973;47.178;15.316;2022-08-05T12:18:56;4.25;;;3.92;;
21798;SDS011;24973;47.178;15.316;2022-08-05T12:21:46;4.05;;;3.75;;
21798;SDS011;24973;47.178;15.316;2022-08-05T12:24:38;4.13;;;3.55;;
21798;SDS011;24973;47.178;15.316;2022-08-05T12:27:29;3.97;;;3.67;;
21798;SDS011;24973;47.178;15.316;2022-08-05T12:30:18;4.53;;;4.13;;
21798;SDS011;24973;47.178;15.316;2022-08-05T12:33:08;3.58;;;3.35;;
21798;SDS011;24973;47.178;15.316;2022-08-05T12:35:58;3.72;;;3.42;;
21798;SDS011;24973;47.178;15.316;2022-08-05T12:38:48;5.70;;;3.63;;
21798;SDS011;24973;47.178;15.316;2022-08-05T12:41:38;3.92;;;3.47;;
21798;SDS011;24973;47.178;15.316;2022-08-05T12:44:28;4.13;;;3.80;;
21798;SDS011;24973;47.178;15.316;2022-08-05T12:47:26;3.40;;;3.10;;
21798;SDS011;24973;47.178;15.316;2022-08-05T12:50:16;3.35;;;3.15;;
21798;SDS011;24973;47.178;15.316;2022-08-05T12:53:07;3.85;;;3.33;;
21798;SDS011;24973;47.178;15.316;2022-08-05T12:56:13;3.45;;;3.15;;
21798;SDS011;24973;47.178;15.316;2022-08-05T12:59:15;4.68;;;3.38;;
21798;SDS011;24973;47.178;15.316;2022-08-05T13:02:06;3.65;;;3.35;;
21798;SDS011;24973;47.178;15.316;2022-08-05T13:04:57;4.50;;;2.92;;
21798;SDS011;24973;47.178;15.316;2022-08-05T13:07:46;4.05;;;3.65;;
21798;SDS011;24973;47.178;15.316;2022-08-05T13:10:45;4.60;;;3.50;;
21798;SDS011;24973;47.178;15.316;2022-08-05T13:13:36;3.15;;;2.92;;
21798;SDS011;24973;47.178;15.316;2022-08-05T13:16:26;4.05;;;3.63;;
21798;SDS011;24973;47.178;15.316;2022-08-05T13:19:15;3.38;;;3.17;;
21798;SDS011;24973;47.178;15.316;2022-08-05T13:22:04;3.58;;;3.20;;
21798;SDS011;24973;47.178;15.316;2022-08-05T13:24:53;3.67;;;3.38;;
21798;SDS011;24973;47.178;15.316;2022-08-05T13:27:45;4.22;;;3.63;;
21798;SDS011;24973;47.178;15.316;2022-08-05T13:30:37;3.92;;;3.63;;
21798;SDS011;24973;47.178;15.316;2022-08-05T13:33:26;3.97;;;3.67;;
21798;SDS011;24973;47.178;15.316;2022-08-05T13:36:14;5.90;;;3.58;;
21798;SDS011;24973;47.178;15.316;2022-08-05T13:39:04;3.67;;;3.38;;
21798;SDS011;24973;47.178;15.316;2022-08-05T13:41:54;4.38;;;3.97;;
21798;SDS011;24973;47.178;15.316;2022-08-05T13:44:45;4.80;;;3.45;;
21798;SDS011;24973;47.178;15.316;2022-08-05T13:47:34;3.90;;;3.50;;
21798;SDS011;24973;47.178;15.316;2022-08-05T13:50:23;3.95;;;3.20;;
21798;SDS011;24973;47.178;15.316;2022-08-05T13:53:12;3.90;;;3.60;;
21798;SDS011;24973;47.178;15.316;2022-08-05T13:56:02;3.60;;;3.38;;
21798;SDS011;24973;47.178;15.316;2022-08-05T13:58:51;4.18;;;3.33;;
21798;SDS011;24973;47.178;15.316;2022-08-05T14:01:41;3.47;;;3.25;;
21798;SDS011;24973;47.178;15.316;2022-08-05T14:04:31;4.43;;;3.13;;
21798;SDS011;24973;47.178;15.316;2022-08-05T14:07:41;3.50;;;3.20;;
21798;SDS011;24973;47.178;15.316;2022-08-05T14:10:31;5.05;;;3.10;;
21798;SDS011;24973;47.178;15.316;2022-08-05T14:13:21;4.10;;;3.35;;
21798;SDS011;24973;47.178;15.316;2022-08-05T14:16:11;3.83;;;3.53;;
21798;SDS011;24973;47.178;15.316;2022-08-05T14:19:01;3.30;;;3.00;;
21798;SDS011;24973;47.178;15.316;2022-08-05T14:21:50;3.28;;;3.08;;
21798;SDS011;24973;47.178;15.316;2022-08-05T14:24:39;3.53;;;3.22;;
21798;SDS011;24973;47.178;15.316;2022-08-05T14:27:27;4.38;;;3.20;;
21798;SDS011;24973;47.178;15.316;2022-08-05T14:30:16;3.60;;;3.28;;
21798;SDS011;24973;47.178;15.316;2022-08-05T14:33:06;5.10;;;3.60;;
21798;SDS011;24973;47.178;15.316;2022-08-05T14:35:56;4.03;;;3.72;;
21798;SDS011;24973;47.178;15.316;2022-08-05T14:38:50;4.43;;;3.63;;
21798;SDS011;24973;47.178;15.316;2022-08-05T14:41:40;3.75;;;3.45;;
21798;SDS011;24973;47.178;15.316;2022-08-05T14:44:37;3.88;;;3.40;;
21798;SDS011;24973;47.178;15.316;2022-08-05T14:47:26;3.80;;;3.47;;
21798;SDS011;24973;47.178;15.316;2022-08-05T14:50:15;3.90;;;3.15;;
21798;SDS011;24973;47.178;15.316;2022-08-05T14:53:06;3.50;;;3.30;;
21798;SDS011;24973;47.178;15.316;2022-08-05T14:55:55;4.30;;;3.35;;
21798;SDS011;24973;47.178;15.316;2022-08-05T14:58:46;3.70;;;3.40;;
21798;SDS011;24973;47.178;15.316;2022-08-05T15:01:47;3.65;;;3.45;;
21798;SDS011;24973;47.178;15.316;2022-08-05T15:04:36;3.42;;;3.20;;
21798;SDS011;24973;47.178;15.316;2022-08-05T15:07:25;3.33;;;3.13;;
21798;SDS011;24973;47.178;15.316;2022-08-05T15:10:15;3.17;;;2.95;;
21798;SDS011;24973;47.178;15.316;2022-08-05T15:13:04;3.30;;;3.10;;
21798;SDS011;24973;47.178;15.316;2022-08-05T15:15:53;4.13;;;3.45;;
21798;SDS011;24973;47.178;15.316;2022-08-05T15:18:43;4.38;;;4.07;;
21798;SDS011;24973;47.178;15.316;2022-08-05T15:21:32;4.97;;;3.30;;
21798;SDS011;24973;47.178;15.316;2022-08-05T15:24:20;5.05;;;3.58;;
21798;SDS011;24973;47.178;15.316;2022-08-05T15:27:11;4.05;;;3.75;;
21798;SDS011;24973;47.178;15.316;2022-08-05T15:29:59;4.95;;;4.50;;
21798;SDS011;24973;47.178;15.316;2022-08-05T15:32:49;5.25;;;3.22;;
21798;SDS011;24973;47.178;15.316;2022-08-05T15:35:37;3.95;;;3.70;;
21798;SDS011;24973;47.178;15.316;2022-08-05T15:38:26;3.90;;;3.60;;
21798;SDS011;24973;47.178;15.316;2022-08-05T15:41:15;4.88;;;4.25;;
21798;SDS011;24973;47.178;15.316;2022-08-05T15:44:06;3.95;;;3.65;;
21798;SDS011;24973;47.178;15.316;2022-08-05T15:46:55;5.15;;;4.45;;
21798;SDS011;24973;47.178;15.316;2022-08-05T15:49:45;5.07;;;4.63;;
21798;SDS011;24973;47.178;15.316;2022-08-05T15:52:36;4.32;;;3.80;;
21798;SDS011;24973;47.178;15.316;2022-08-05T15:55:26;4.95;;;4.55;;
21798;SDS011;24973;47.178;15.316;2022-08-05T15:58:14;6.32;;;4.15;;
21798;SDS011;24973;47.178;15.316;2022-08-05T16:01:05;7.00;;;4.72;;
21798;SDS011;24973;47.178;15.316;2022-08-05T16:03:58;4.30;;;3.90;;
21798;SDS011;24973;47.178;15.316;2022-08-05T16:06:47;6.53;;;4.65;;
21798;SDS011;24973;47.178;15.316;2022-08-05T16:09:36;4.15;;;3.75;;
21798;SDS011;24973;47.178;15.316;2022-08-05T16:12:26;4.85;;;4.18;;
21798;SDS011;24973;47.178;15.316;2022-08-05T16:15:15;4.50;;;4.10;;
21798;SDS011;24973;47.178;15.316;2022-08-05T16:18:07;4.47;;;4.17;;
21798;SDS011;24973;47.178;15.316;2022-08-05T16:20:56;4.43;;;4.03;;
21798;SDS011;24973;47.178;15.316;2022-08-05T16:23:45;6.57;;;3.97;;
21798;SDS011;24973;47.178;15.316;2022-08-05T16:26:43;6.33;;;5.70;;
21798;SDS011;24973;47.178;15.316;2022-08-05T16:29:37;5.03;;;4.10;;
21798;SDS011;24973;47.178;15.316;2022-08-05T16:32:28;4.53;;;4.13;;
21798;SDS011;24973;47.178;15.316;2022-08-05T16:35:18;4.40;;;4.00;;
21798;SDS011;24973;47.178;15.316;2022-08-05T16:38:07;4.57;;;4.17;;
21798;SDS011;24973;47.178;15.316;2022-08-05T16:40:57;3.93;;;3.63;;
21798;SDS011;24973;47.178;15.316;2022-08-05T16:43:48;5.53;;;5.03;;
21798;SDS011;24973;47.178;15.316;2022-08-05T16:46:37;4.60;;;4.27;;
21798;SDS011;24973;47.178;15.316;2022-08-05T16:49:27;4.93;;;4.10;;
21798;SDS011;24973;47.178;15.316;2022-08-05T16:52:17;4.77;;;4.33;;
21798;SDS011;24973;47.178;15.316;2022-08-05T16:55:06;5.40;;;4.03;;
21798;SDS011;24973;47.178;15.316;2022-08-05T16:57:56;4.50;;;4.10;;
21798;SDS011;24973;47.178;15.316;2022-08-05T17:00:44;5.20;;;4.53;;
21798;SDS011;24973;47.178;15.316;2022-08-05T17:03:34;6.40;;;5.53;;